< < Back
Terminal Aerodrome Forecast


Current Version              Previous Versions:   1  2  3  4  5  6  7  8  9  

Terminal Aerodrome Forecast

468
FTUS44 KBMX 281720
TAFANB
TAF
KANB 281720Z 2818/2918 11012KT P6SM SCT050 SCT250
     FM282000 07007KT P6SM VCSH SCT050
     FM290000 06003KT P6SM SCT250=

Latest METAR

176
SAUS70 KWBC 290000
MTRANB
METAR KANB 282353Z AUTO 12004KT 10SM CLR 32/19 A3004 RMK AO2 SLP160
T03170189 10350 20317 53000


USA.gov is the U.S. government's official web portal to all federal, state and local government web resources and services.